sensor_id;sensor_type;location;lat;lon;timestamp;P1;durP1;ratioP1;P2;durP2;ratioP2
1625;SDS011;806;48.770;9.156;2023-03-01T00:02:19;11.38;;;7.00;;
1625;SDS011;806;48.770;9.156;2023-03-01T00:04:47;10.68;;;6.90;;
1625;SDS011;806;48.770;9.156;2023-03-01T00:07:14;8.23;;;6.50;;
1625;SDS011;806;48.770;9.156;2023-03-01T00:09:42;10.43;;;6.20;;
1625;SDS011;806;48.770;9.156;2023-03-01T00:12:11;9.15;;;5.90;;
1625;SDS011;806;48.770;9.156;2023-03-01T00:14:38;10.10;;;6.35;;
1625;SDS011;806;48.770;9.156;2023-03-01T00:17:05;10.32;;;7.35;;
1625;SDS011;806;48.770;9.156;2023-03-01T00:19:32;8.75;;;5.88;;
1625;SDS011;806;48.770;9.156;2023-03-01T00:22:00;10.30;;;5.83;;
1625;SDS011;806;48.770;9.156;2023-03-01T00:24:27;9.40;;;5.78;;
1625;SDS011;806;48.770;9.156;2023-03-01T00:26:56;8.15;;;5.50;;
1625;SDS011;806;48.770;9.156;2023-03-01T00:29:23;9.48;;;5.80;;
1625;SDS011;806;48.770;9.156;2023-03-01T00:31:50;7.93;;;5.57;;
1625;SDS011;806;48.770;9.156;2023-03-01T00:34:17;9.85;;;6.00;;
1625;SDS011;806;48.770;9.156;2023-03-01T00:36:45;9.38;;;6.47;;
1625;SDS011;806;48.770;9.156;2023-03-01T00:39:13;9.10;;;5.93;;
1625;SDS011;806;48.770;9.156;2023-03-01T00:41:41;9.30;;;6.78;;
1625;SDS011;806;48.770;9.156;2023-03-01T00:44:10;10.75;;;6.22;;
1625;SDS011;806;48.770;9.156;2023-03-01T00:46:38;10.07;;;6.40;;
1625;SDS011;806;48.770;9.156;2023-03-01T00:49:05;10.05;;;6.20;;
1625;SDS011;806;48.770;9.156;2023-03-01T00:51:32;9.32;;;6.20;;
1625;SDS011;806;48.770;9.156;2023-03-01T00:54:00;8.88;;;5.50;;
1625;SDS011;806;48.770;9.156;2023-03-01T00:56:28;8.32;;;5.68;;
1625;SDS011;806;48.770;9.156;2023-03-01T00:58:56;8.82;;;6.15;;
1625;SDS011;806;48.770;9.156;2023-03-01T01:01:25;8.43;;;6.10;;
1625;SDS011;806;48.770;9.156;2023-03-01T01:03:56;8.35;;;6.20;;
1625;SDS011;806;48.770;9.156;2023-03-01T01:06:24;10.27;;;6.70;;
1625;SDS011;806;48.770;9.156;2023-03-01T01:08:53;10.43;;;5.80;;
1625;SDS011;806;48.770;9.156;2023-03-01T01:11:21;10.15;;;6.82;;
1625;SDS011;806;48.770;9.156;2023-03-01T01:13:50;8.90;;;5.60;;
1625;SDS011;806;48.770;9.156;2023-03-01T01:16:18;9.25;;;6.10;;
1625;SDS011;806;48.770;9.156;2023-03-01T01:18:48;9.77;;;6.47;;
1625;SDS011;806;48.770;9.156;2023-03-01T01:21:16;9.90;;;5.40;;
1625;SDS011;806;48.770;9.156;2023-03-01T01:23:45;8.43;;;6.20;;
1625;SDS011;806;48.770;9.156;2023-03-01T01:26:14;9.02;;;5.93;;
1625;SDS011;806;48.770;9.156;2023-03-01T01:28:42;10.63;;;6.47;;
1625;SDS011;806;48.770;9.156;2023-03-01T01:31:10;7.60;;;5.10;;
1625;SDS011;806;48.770;9.156;2023-03-01T01:33:37;8.88;;;4.95;;
1625;SDS011;806;48.770;9.156;2023-03-01T01:36:06;8.57;;;5.90;;
1625;SDS011;806;48.770;9.156;2023-03-01T01:38:34;11.02;;;6.30;;
1625;SDS011;806;48.770;9.156;2023-03-01T01:41:01;10.15;;;6.93;;
1625;SDS011;806;48.770;9.156;2023-03-01T01:43:29;9.50;;;6.40;;
1625;SDS011;806;48.770;9.156;2023-03-01T01:46:00;8.60;;;5.55;;
1625;SDS011;806;48.770;9.156;2023-03-01T01:48:32;8.55;;;5.70;;
1625;SDS011;806;48.770;9.156;2023-03-01T01:51:09;9.38;;;6.10;;
1625;SDS011;806;48.770;9.156;2023-03-01T01:53:39;7.90;;;5.60;;
1625;SDS011;806;48.770;9.156;2023-03-01T01:56:07;9.07;;;5.87;;
1625;SDS011;806;48.770;9.156;2023-03-01T01:58:37;8.73;;;5.57;;
1625;SDS011;806;48.770;9.156;2023-03-01T02:01:05;9.87;;;6.30;;
1625;SDS011;806;48.770;9.156;2023-03-01T02:03:36;8.93;;;5.97;;
1625;SDS011;806;48.770;9.156;2023-03-01T02:06:11;9.73;;;6.47;;
1625;SDS011;806;48.770;9.156;2023-03-01T02:08:43;8.70;;;6.35;;
1625;SDS011;806;48.770;9.156;2023-03-01T02:11:12;9.45;;;5.88;;
1625;SDS011;806;48.770;9.156;2023-03-01T02:13:40;10.77;;;6.18;;
1625;SDS011;806;48.770;9.156;2023-03-01T02:16:09;10.83;;;6.27;;
1625;SDS011;806;48.770;9.156;2023-03-01T02:18:37;8.10;;;5.20;;
1625;SDS011;806;48.770;9.156;2023-03-01T02:21:11;9.93;;;6.50;;
1625;SDS011;806;48.770;9.156;2023-03-01T02:23:50;10.40;;;6.63;;
1625;SDS011;806;48.770;9.156;2023-03-01T02:26:19;8.90;;;6.40;;
1625;SDS011;806;48.770;9.156;2023-03-01T02:28:51;11.40;;;6.88;;
1625;SDS011;806;48.770;9.156;2023-03-01T02:31:19;9.95;;;6.70;;
1625;SDS011;806;48.770;9.156;2023-03-01T02:34:05;10.27;;;6.28;;
1625;SDS011;806;48.770;9.156;2023-03-01T02:36:34;9.90;;;6.30;;
1625;SDS011;806;48.770;9.156;2023-03-01T02:39:05;9.75;;;6.60;;
1625;SDS011;806;48.770;9.156;2023-03-01T02:41:40;10.82;;;6.55;;
1625;SDS011;806;48.770;9.156;2023-03-01T02:44:10;11.23;;;6.85;;
1625;SDS011;806;48.770;9.156;2023-03-01T02:46:41;9.85;;;5.88;;
1625;SDS011;806;48.770;9.156;2023-03-01T02:49:17;9.57;;;7.25;;
1625;SDS011;806;48.770;9.156;2023-03-01T02:51:48;12.02;;;6.80;;
1625;SDS011;806;48.770;9.156;2023-03-01T02:54:40;12.57;;;7.78;;
1625;SDS011;806;48.770;9.156;2023-03-01T02:57:10;9.68;;;6.75;;
1625;SDS011;806;48.770;9.156;2023-03-01T02:59:39;10.70;;;6.80;;
1625;SDS011;806;48.770;9.156;2023-03-01T03:02:17;11.55;;;7.60;;
1625;SDS011;806;48.770;9.156;2023-03-01T03:05:01;9.75;;;5.95;;
1625;SDS011;806;48.770;9.156;2023-03-01T03:07:31;9.15;;;6.40;;
1625;SDS011;806;48.770;9.156;2023-03-01T03:09:59;9.95;;;6.80;;
1625;SDS011;806;48.770;9.156;2023-03-01T03:12:27;10.60;;;7.05;;
1625;SDS011;806;48.770;9.156;2023-03-01T03:14:55;11.02;;;7.07;;
1625;SDS011;806;48.770;9.156;2023-03-01T03:17:22;9.23;;;6.37;;
1625;SDS011;806;48.770;9.156;2023-03-01T03:19:50;10.65;;;6.68;;
1625;SDS011;806;48.770;9.156;2023-03-01T03:22:17;11.13;;;6.73;;
1625;SDS011;806;48.770;9.156;2023-03-01T03:24:44;10.02;;;7.18;;
1625;SDS011;806;48.770;9.156;2023-03-01T03:27:11;9.98;;;6.55;;
1625;SDS011;806;48.770;9.156;2023-03-01T03:29:38;10.50;;;6.60;;
1625;SDS011;806;48.770;9.156;2023-03-01T03:32:07;8.68;;;5.70;;
1625;SDS011;806;48.770;9.156;2023-03-01T03:34:34;12.48;;;6.90;;
1625;SDS011;806;48.770;9.156;2023-03-01T03:37:01;11.63;;;7.25;;
1625;SDS011;806;48.770;9.156;2023-03-01T03:39:28;10.35;;;6.40;;
1625;SDS011;806;48.770;9.156;2023-03-01T03:42:00;10.50;;;6.38;;
1625;SDS011;806;48.770;9.156;2023-03-01T03:44:28;11.48;;;7.60;;
1625;SDS011;806;48.770;9.156;2023-03-01T03:46:55;10.65;;;6.55;;
1625;SDS011;806;48.770;9.156;2023-03-01T03:49:23;10.40;;;7.50;;
1625;SDS011;806;48.770;9.156;2023-03-01T03:51:50;10.00;;;7.00;;
1625;SDS011;806;48.770;9.156;2023-03-01T03:54:18;10.85;;;7.20;;
1625;SDS011;806;48.770;9.156;2023-03-01T03:56:45;11.20;;;7.57;;
1625;SDS011;806;48.770;9.156;2023-03-01T03:59:12;12.15;;;7.55;;
1625;SDS011;806;48.770;9.156;2023-03-01T04:01:39;12.98;;;7.40;;
1625;SDS011;806;48.770;9.156;2023-03-01T04:04:06;10.17;;;6.10;;
1625;SDS011;806;48.770;9.156;2023-03-01T04:06:34;12.50;;;7.10;;
1625;SDS011;806;48.770;9.156;2023-03-01T04:09:02;11.80;;;6.40;;
1625;SDS011;806;48.770;9.156;2023-03-01T04:11:29;9.65;;;6.90;;
1625;SDS011;806;48.770;9.156;2023-03-01T04:13:57;11.23;;;7.47;;
1625;SDS011;806;48.770;9.156;2023-03-01T04:16:25;12.90;;;8.25;;
1625;SDS011;806;48.770;9.156;2023-03-01T04:18:52;13.50;;;8.50;;
1625;SDS011;806;48.770;9.156;2023-03-01T04:21:20;13.95;;;8.68;;
1625;SDS011;806;48.770;9.156;2023-03-01T04:23:48;12.05;;;7.47;;
1625;SDS011;806;48.770;9.156;2023-03-01T04:26:17;11.50;;;7.07;;
1625;SDS011;806;48.770;9.156;2023-03-01T04:28:45;11.40;;;7.85;;
1625;SDS011;806;48.770;9.156;2023-03-01T04:31:15;10.77;;;7.70;;
1625;SDS011;806;48.770;9.156;2023-03-01T04:33:46;11.95;;;8.02;;
1625;SDS011;806;48.770;9.156;2023-03-01T04:36:16;10.85;;;7.93;;
1625;SDS011;806;48.770;9.156;2023-03-01T04:38:44;11.40;;;7.50;;
1625;SDS011;806;48.770;9.156;2023-03-01T04:41:15;12.70;;;8.02;;
1625;SDS011;806;48.770;9.156;2023-03-01T04:43:43;10.25;;;7.70;;
1625;SDS011;806;48.770;9.156;2023-03-01T04:46:11;10.88;;;7.18;;
1625;SDS011;806;48.770;9.156;2023-03-01T04:48:40;9.60;;;7.20;;
1625;SDS011;806;48.770;9.156;2023-03-01T04:51:08;12.30;;;7.22;;
1625;SDS011;806;48.770;9.156;2023-03-01T04:53:38;11.30;;;7.75;;
1625;SDS011;806;48.770;9.156;2023-03-01T04:56:06;11.80;;;7.57;;
1625;SDS011;806;48.770;9.156;2023-03-01T04:58:34;12.35;;;7.88;;
1625;SDS011;806;48.770;9.156;2023-03-01T05:01:07;9.70;;;7.07;;
1625;SDS011;806;48.770;9.156;2023-03-01T05:03:40;13.10;;;7.97;;
1625;SDS011;806;48.770;9.156;2023-03-01T05:06:08;11.27;;;8.10;;
1625;SDS011;806;48.770;9.156;2023-03-01T05:08:36;11.60;;;7.28;;
1625;SDS011;806;48.770;9.156;2023-03-01T05:11:03;12.48;;;8.23;;
1625;SDS011;806;48.770;9.156;2023-03-01T05:13:35;11.13;;;7.30;;
1625;SDS011;806;48.770;9.156;2023-03-01T05:16:04;11.52;;;7.47;;
1625;SDS011;806;48.770;9.156;2023-03-01T05:18:36;11.63;;;8.18;;
1625;SDS011;806;48.770;9.156;2023-03-01T05:21:05;11.50;;;7.37;;
1625;SDS011;806;48.770;9.156;2023-03-01T05:23:33;13.85;;;8.45;;
1625;SDS011;806;48.770;9.156;2023-03-01T05:26:01;11.40;;;7.55;;
1625;SDS011;806;48.770;9.156;2023-03-01T05:28:30;12.10;;;7.67;;
1625;SDS011;806;48.770;9.156;2023-03-01T05:30:59;11.35;;;7.70;;
1625;SDS011;806;48.770;9.156;2023-03-01T05:33:26;10.25;;;7.13;;
1625;SDS011;806;48.770;9.156;2023-03-01T05:35:54;10.60;;;7.47;;
1625;SDS011;806;48.770;9.156;2023-03-01T05:38:21;12.68;;;7.18;;
1625;SDS011;806;48.770;9.156;2023-03-01T05:40:48;11.65;;;7.15;;
1625;SDS011;806;48.770;9.156;2023-03-01T05:43:16;8.43;;;6.97;;
1625;SDS011;806;48.770;9.156;2023-03-01T05:45:44;11.88;;;8.68;;
1625;SDS011;806;48.770;9.156;2023-03-01T05:48:13;10.50;;;7.47;;
1625;SDS011;806;48.770;9.156;2023-03-01T05:50:40;9.40;;;7.05;;
1625;SDS011;806;48.770;9.156;2023-03-01T05:53:10;9.38;;;6.10;;
1625;SDS011;806;48.770;9.156;2023-03-01T05:55:38;12.27;;;7.53;;
1625;SDS011;806;48.770;9.156;2023-03-01T05:58:07;11.63;;;7.50;;
1625;SDS011;806;48.770;9.156;2023-03-01T06:00:36;10.52;;;6.30;;
1625;SDS011;806;48.770;9.156;2023-03-01T06:03:03;10.32;;;7.30;;
1625;SDS011;806;48.770;9.156;2023-03-01T06:05:31;9.30;;;6.57;;
1625;SDS011;806;48.770;9.156;2023-03-01T06:07:59;10.75;;;6.80;;
1625;SDS011;806;48.770;9.156;2023-03-01T06:10:26;10.82;;;7.45;;
1625;SDS011;806;48.770;9.156;2023-03-01T06:12:54;11.40;;;7.57;;
1625;SDS011;806;48.770;9.156;2023-03-01T06:15:22;12.75;;;8.77;;
1625;SDS011;806;48.770;9.156;2023-03-01T06:17:49;13.20;;;8.13;;
1625;SDS011;806;48.770;9.156;2023-03-01T06:20:17;10.27;;;6.88;;
1625;SDS011;806;48.770;9.156;2023-03-01T06:22:47;12.27;;;7.43;;
1625;SDS011;806;48.770;9.156;2023-03-01T06:25:16;12.25;;;7.50;;
1625;SDS011;806;48.770;9.156;2023-03-01T06:27:45;11.63;;;8.02;;
1625;SDS011;806;48.770;9.156;2023-03-01T06:30:14;12.75;;;7.68;;
1625;SDS011;806;48.770;9.156;2023-03-01T06:32:42;11.30;;;8.02;;
1625;SDS011;806;48.770;9.156;2023-03-01T06:35:10;11.40;;;7.33;;
1625;SDS011;806;48.770;9.156;2023-03-01T06:37:39;11.88;;;7.93;;
1625;SDS011;806;48.770;9.156;2023-03-01T06:40:08;10.80;;;7.70;;
1625;SDS011;806;48.770;9.156;2023-03-01T06:42:39;11.88;;;7.90;;
1625;SDS011;806;48.770;9.156;2023-03-01T06:45:07;13.77;;;8.40;;
1625;SDS011;806;48.770;9.156;2023-03-01T06:47:36;12.02;;;7.40;;
1625;SDS011;806;48.770;9.156;2023-03-01T06:50:03;13.32;;;7.65;;
1625;SDS011;806;48.770;9.156;2023-03-01T06:52:30;10.98;;;6.97;;
1625;SDS011;806;48.770;9.156;2023-03-01T06:54:58;11.07;;;7.35;;
1625;SDS011;806;48.770;9.156;2023-03-01T06:57:27;16.05;;;8.07;;
1625;SDS011;806;48.770;9.156;2023-03-01T06:59:54;10.93;;;7.50;;
1625;SDS011;806;48.770;9.156;2023-03-01T07:02:21;9.52;;;6.97;;
1625;SDS011;806;48.770;9.156;2023-03-01T07:04:49;11.20;;;7.68;;
1625;SDS011;806;48.770;9.156;2023-03-01T07:07:16;11.50;;;8.27;;
1625;SDS011;806;48.770;9.156;2023-03-01T07:09:44;10.15;;;6.97;;
1625;SDS011;806;48.770;9.156;2023-03-01T07:12:11;11.43;;;8.23;;
1625;SDS011;806;48.770;9.156;2023-03-01T07:14:40;11.40;;;8.17;;
1625;SDS011;806;48.770;9.156;2023-03-01T07:17:07;11.00;;;8.25;;
1625;SDS011;806;48.770;9.156;2023-03-01T07:19:34;12.73;;;8.60;;
1625;SDS011;806;48.770;9.156;2023-03-01T07:22:02;11.63;;;7.32;;
1625;SDS011;806;48.770;9.156;2023-03-01T07:24:32;13.77;;;8.55;;
1625;SDS011;806;48.770;9.156;2023-03-01T07:26:59;13.50;;;8.80;;
1625;SDS011;806;48.770;9.156;2023-03-01T07:29:27;14.70;;;8.50;;
1625;SDS011;806;48.770;9.156;2023-03-01T07:31:56;11.87;;;8.20;;
1625;SDS011;806;48.770;9.156;2023-03-01T07:34:23;11.65;;;8.35;;
1625;SDS011;806;48.770;9.156;2023-03-01T07:36:51;12.43;;;8.43;;
1625;SDS011;806;48.770;9.156;2023-03-01T07:39:18;12.57;;;8.57;;
1625;SDS011;806;48.770;9.156;2023-03-01T07:41:48;13.90;;;7.57;;
1625;SDS011;806;48.770;9.156;2023-03-01T07:44:15;13.05;;;8.23;;
1625;SDS011;806;48.770;9.156;2023-03-01T07:46:42;11.35;;;7.78;;
1625;SDS011;806;48.770;9.156;2023-03-01T07:49:11;14.00;;;8.60;;
1625;SDS011;806;48.770;9.156;2023-03-01T07:51:38;10.93;;;7.88;;
1625;SDS011;806;48.770;9.156;2023-03-01T07:54:05;11.30;;;7.97;;
1625;SDS011;806;48.770;9.156;2023-03-01T07:56:32;12.00;;;8.13;;
1625;SDS011;806;48.770;9.156;2023-03-01T07:58:59;14.68;;;7.97;;
1625;SDS011;806;48.770;9.156;2023-03-01T08:01:27;13.70;;;8.63;;
1625;SDS011;806;48.770;9.156;2023-03-01T08:03:54;13.10;;;8.50;;
1625;SDS011;806;48.770;9.156;2023-03-01T08:06:22;13.67;;;8.80;;
1625;SDS011;806;48.770;9.156;2023-03-01T08:08:49;12.20;;;8.65;;
1625;SDS011;806;48.770;9.156;2023-03-01T08:11:17;12.38;;;9.02;;
1625;SDS011;806;48.770;9.156;2023-03-01T08:13:46;13.73;;;9.45;;
1625;SDS011;806;48.770;9.156;2023-03-01T08:16:14;11.98;;;8.57;;
1625;SDS011;806;48.770;9.156;2023-03-01T08:18:42;12.65;;;7.95;;
1625;SDS011;806;48.770;9.156;2023-03-01T08:21:10;13.25;;;8.80;;
1625;SDS011;806;48.770;9.156;2023-03-01T08:23:40;13.52;;;9.10;;
1625;SDS011;806;48.770;9.156;2023-03-01T08:26:08;11.90;;;7.97;;
1625;SDS011;806;48.770;9.156;2023-03-01T08:28:37;13.68;;;9.73;;
1625;SDS011;806;48.770;9.156;2023-03-01T08:31:13;14.57;;;9.45;;
1625;SDS011;806;48.770;9.156;2023-03-01T08:33:41;13.07;;;8.68;;
1625;SDS011;806;48.770;9.156;2023-03-01T08:36:08;14.68;;;8.90;;
1625;SDS011;806;48.770;9.156;2023-03-01T08:38:35;13.57;;;8.93;;
1625;SDS011;806;48.770;9.156;2023-03-01T08:41:04;13.05;;;9.27;;
1625;SDS011;806;48.770;9.156;2023-03-01T08:43:31;13.45;;;7.90;;
1625;SDS011;806;48.770;9.156;2023-03-01T08:45:58;13.38;;;8.60;;
1625;SDS011;806;48.770;9.156;2023-03-01T08:48:25;13.80;;;8.82;;
1625;SDS011;806;48.770;9.156;2023-03-01T08:50:54;13.87;;;8.97;;
1625;SDS011;806;48.770;9.156;2023-03-01T08:53:21;14.40;;;8.52;;
1625;SDS011;806;48.770;9.156;2023-03-01T08:55:48;13.52;;;8.05;;
1625;SDS011;806;48.770;9.156;2023-03-01T08:58:18;13.63;;;9.03;;
1625;SDS011;806;48.770;9.156;2023-03-01T09:00:46;15.00;;;9.20;;
1625;SDS011;806;48.770;9.156;2023-03-01T09:03:15;15.88;;;8.25;;
1625;SDS011;806;48.770;9.156;2023-03-01T09:05:44;12.03;;;8.53;;
1625;SDS011;806;48.770;9.156;2023-03-01T09:08:14;12.82;;;8.55;;
1625;SDS011;806;48.770;9.156;2023-03-01T09:10:42;12.18;;;8.50;;
1625;SDS011;806;48.770;9.156;2023-03-01T09:13:11;11.57;;;7.50;;
1625;SDS011;806;48.770;9.156;2023-03-01T09:15:41;14.30;;;10.00;;
1625;SDS011;806;48.770;9.156;2023-03-01T09:18:09;14.63;;;9.20;;
1625;SDS011;806;48.770;9.156;2023-03-01T09:20:37;12.77;;;8.23;;
1625;SDS011;806;48.770;9.156;2023-03-01T09:23:05;15.60;;;10.20;;
1625;SDS011;806;48.770;9.156;2023-03-01T09:25:33;12.50;;;8.70;;
1625;SDS011;806;48.770;9.156;2023-03-01T09:28:02;11.65;;;8.70;;
1625;SDS011;806;48.770;9.156;2023-03-01T09:30:30;14.98;;;9.13;;
1625;SDS011;806;48.770;9.156;2023-03-01T09:33:00;16.00;;;8.95;;
1625;SDS011;806;48.770;9.156;2023-03-01T09:35:28;13.75;;;10.10;;
1625;SDS011;806;48.770;9.156;2023-03-01T09:37:57;13.60;;;9.10;;
1625;SDS011;806;48.770;9.156;2023-03-01T09:40:25;11.13;;;8.20;;
1625;SDS011;806;48.770;9.156;2023-03-01T09:42:55;12.07;;;8.77;;
1625;SDS011;806;48.770;9.156;2023-03-01T09:45:29;14.85;;;9.50;;
1625;SDS011;806;48.770;9.156;2023-03-01T09:48:04;15.85;;;9.65;;
1625;SDS011;806;48.770;9.156;2023-03-01T09:50:40;11.97;;;8.07;;
1625;SDS011;806;48.770;9.156;2023-03-01T09:53:13;13.75;;;8.32;;
1625;SDS011;806;48.770;9.156;2023-03-01T09:55:44;14.40;;;10.20;;
1625;SDS011;806;48.770;9.156;2023-03-01T09:58:24;14.38;;;9.10;;
1625;SDS011;806;48.770;9.156;2023-03-01T10:01:10;13.07;;;8.23;;
1625;SDS011;806;48.770;9.156;2023-03-01T10:03:52;13.80;;;9.68;;
1625;SDS011;806;48.770;9.156;2023-03-01T10:06:31;13.80;;;9.30;;
1625;SDS011;806;48.770;9.156;2023-03-01T10:09:00;13.15;;;8.32;;
1625;SDS011;806;48.770;9.156;2023-03-01T10:11:37;13.10;;;8.45;;
1625;SDS011;806;48.770;9.156;2023-03-01T10:14:13;13.30;;;8.60;;
1625;SDS011;806;48.770;9.156;2023-03-01T10:16:55;9.57;;;7.10;;
1625;SDS011;806;48.770;9.156;2023-03-01T10:19:30;9.10;;;7.82;;
1625;SDS011;806;48.770;9.156;2023-03-01T10:22:03;13.57;;;8.53;;
1625;SDS011;806;48.770;9.156;2023-03-01T10:24:39;13.02;;;7.43;;
1625;SDS011;806;48.770;9.156;2023-03-01T10:27:08;12.00;;;8.38;;
1625;SDS011;806;48.770;9.156;2023-03-01T10:29:44;11.43;;;7.70;;
1625;SDS011;806;48.770;9.156;2023-03-01T10:32:17;14.05;;;8.75;;
1625;SDS011;806;48.770;9.156;2023-03-01T10:34:48;12.30;;;8.40;;
1625;SDS011;806;48.770;9.156;2023-03-01T10:37:16;12.57;;;8.30;;
1625;SDS011;806;48.770;9.156;2023-03-01T10:39:58;10.38;;;7.70;;
1625;SDS011;806;48.770;9.156;2023-03-01T10:42:31;10.67;;;7.40;;
1625;SDS011;806;48.770;9.156;2023-03-01T10:45:14;11.43;;;8.40;;
1625;SDS011;806;48.770;9.156;2023-03-01T10:47:46;9.80;;;6.97;;
1625;SDS011;806;48.770;9.156;2023-03-01T10:50:31;11.02;;;7.93;;
1625;SDS011;806;48.770;9.156;2023-03-01T10:52:59;10.45;;;7.30;;
1625;SDS011;806;48.770;9.156;2023-03-01T10:55:31;9.35;;;6.95;;
1625;SDS011;806;48.770;9.156;2023-03-01T10:58:08;10.32;;;6.80;;
1625;SDS011;806;48.770;9.156;2023-03-01T11:00:48;8.93;;;7.07;;
1625;SDS011;806;48.770;9.156;2023-03-01T11:03:18;11.93;;;8.38;;
1625;SDS011;806;48.770;9.156;2023-03-01T11:05:55;9.75;;;6.70;;
1625;SDS011;806;48.770;9.156;2023-03-01T11:08:34;10.90;;;7.30;;
1625;SDS011;806;48.770;9.156;2023-03-01T11:11:05;11.30;;;7.57;;
1625;SDS011;806;48.770;9.156;2023-03-01T11:13:46;9.60;;;7.33;;
1625;SDS011;806;48.770;9.156;2023-03-01T11:16:22;9.27;;;7.07;;
1625;SDS011;806;48.770;9.156;2023-03-01T11:18:57;24.57;;;9.33;;
1625;SDS011;806;48.770;9.156;2023-03-01T11:21:30;30.03;;;10.20;;
1625;SDS011;806;48.770;9.156;2023-03-01T11:24:02;19.45;;;9.38;;
1625;SDS011;806;48.770;9.156;2023-03-01T11:26:34;10.47;;;7.50;;
1625;SDS011;806;48.770;9.156;2023-03-01T11:29:07;8.88;;;6.43;;
1625;SDS011;806;48.770;9.156;2023-03-01T11:31:54;10.13;;;7.82;;
1625;SDS011;806;48.770;9.156;2023-03-01T11:34:30;12.65;;;8.27;;
1625;SDS011;806;48.770;9.156;2023-03-01T11:37:09;12.95;;;8.00;;
1625;SDS011;806;48.770;9.156;2023-03-01T11:39:47;11.93;;;8.57;;
1625;SDS011;806;48.770;9.156;2023-03-01T11:42:25;10.25;;;7.93;;
1625;SDS011;806;48.770;9.156;2023-03-01T11:45:05;10.68;;;7.38;;
1625;SDS011;806;48.770;9.156;2023-03-01T11:47:58;10.35;;;6.95;;
1625;SDS011;806;48.770;9.156;2023-03-01T11:50:35;11.60;;;7.40;;
1625;SDS011;806;48.770;9.156;2023-03-01T11:53:23;9.50;;;6.80;;
1625;SDS011;806;48.770;9.156;2023-03-01T11:56:03;10.70;;;7.55;;
1625;SDS011;806;48.770;9.156;2023-03-01T11:58:43;14.15;;;8.45;;
1625;SDS011;806;48.770;9.156;2023-03-01T12:01:25;11.38;;;7.15;;
1625;SDS011;806;48.770;9.156;2023-03-01T12:04:16;10.52;;;7.65;;
1625;SDS011;806;48.770;9.156;2023-03-01T12:06:57;10.23;;;6.90;;
1625;SDS011;806;48.770;9.156;2023-03-01T12:09:34;9.52;;;6.90;;
1625;SDS011;806;48.770;9.156;2023-03-01T12:18:08;9.30;;;7.50;;
1625;SDS011;806;48.770;9.156;2023-03-01T12:20:51;8.05;;;6.15;;
1625;SDS011;806;48.770;9.156;2023-03-01T12:23:32;10.27;;;7.40;;
1625;SDS011;806;48.770;9.156;2023-03-01T12:26:25;9.27;;;6.40;;
1625;SDS011;806;48.770;9.156;2023-03-01T12:29:07;12.40;;;6.55;;
1625;SDS011;806;48.770;9.156;2023-03-01T12:31:56;9.00;;;6.82;;
1625;SDS011;806;48.770;9.156;2023-03-01T12:37:47;8.27;;;6.10;;
1625;SDS011;806;48.770;9.156;2023-03-01T12:40:23;9.07;;;6.57;;
1625;SDS011;806;48.770;9.156;2023-03-01T12:43:10;9.53;;;7.13;;
1625;SDS011;806;48.770;9.156;2023-03-01T12:45:54;7.88;;;6.63;;
1625;SDS011;806;48.770;9.156;2023-03-01T12:48:41;8.35;;;6.10;;
1625;SDS011;806;48.770;9.156;2023-03-01T12:51:21;9.20;;;6.72;;
1625;SDS011;806;48.770;9.156;2023-03-01T12:53:51;10.25;;;6.40;;
1625;SDS011;806;48.770;9.156;2023-03-01T12:56:22;8.38;;;6.22;;
1625;SDS011;806;48.770;9.156;2023-03-01T12:58:54;10.20;;;5.87;;
1625;SDS011;806;48.770;9.156;2023-03-01T13:04:21;7.18;;;5.20;;
1625;SDS011;806;48.770;9.156;2023-03-01T13:07:18;7.97;;;5.60;;
1625;SDS011;806;48.770;9.156;2023-03-01T13:09:55;8.20;;;5.80;;
1625;SDS011;806;48.770;9.156;2023-03-01T13:12:42;10.20;;;5.93;;
1625;SDS011;806;48.770;9.156;2023-03-01T13:15:32;8.55;;;5.13;;
1625;SDS011;806;48.770;9.156;2023-03-01T13:18:02;9.60;;;6.15;;
1625;SDS011;806;48.770;9.156;2023-03-01T13:20:34;6.72;;;4.93;;
1625;SDS011;806;48.770;9.156;2023-03-01T13:23:13;6.53;;;4.43;;
1625;SDS011;806;48.770;9.156;2023-03-01T13:26:01;6.35;;;4.88;;
1625;SDS011;806;48.770;9.156;2023-03-01T13:28:54;7.22;;;5.53;;
1625;SDS011;806;48.770;9.156;2023-03-01T13:34:40;8.00;;;5.20;;
1625;SDS011;806;48.770;9.156;2023-03-01T13:37:19;7.53;;;5.43;;
1625;SDS011;806;48.770;9.156;2023-03-01T13:39:48;9.55;;;6.07;;
1625;SDS011;806;48.770;9.156;2023-03-01T13:42:33;7.47;;;6.15;;
1625;SDS011;806;48.770;9.156;2023-03-01T13:45:16;9.45;;;6.18;;
1625;SDS011;806;48.770;9.156;2023-03-01T13:47:46;9.20;;;6.10;;
1625;SDS011;806;48.770;9.156;2023-03-01T13:50:19;7.75;;;5.70;;
1625;SDS011;806;48.770;9.156;2023-03-01T13:52:50;11.05;;;6.97;;
1625;SDS011;806;48.770;9.156;2023-03-01T13:55:24;10.60;;;6.47;;
1625;SDS011;806;48.770;9.156;2023-03-01T13:57:56;10.20;;;6.90;;
1625;SDS011;806;48.770;9.156;2023-03-01T14:00:27;9.02;;;6.05;;
1625;SDS011;806;48.770;9.156;2023-03-01T14:03:03;9.60;;;7.13;;
1625;SDS011;806;48.770;9.156;2023-03-01T14:05:40;10.88;;;7.10;;
1625;SDS011;806;48.770;9.156;2023-03-01T14:08:19;11.82;;;7.82;;
1625;SDS011;806;48.770;9.156;2023-03-01T14:10:52;10.73;;;7.20;;
1625;SDS011;806;48.770;9.156;2023-03-01T14:13:38;10.40;;;6.45;;
1625;SDS011;806;48.770;9.156;2023-03-01T14:16:19;7.70;;;6.43;;
1625;SDS011;806;48.770;9.156;2023-03-01T14:18:57;10.40;;;7.20;;
1625;SDS011;806;48.770;9.156;2023-03-01T14:21:36;12.90;;;7.30;;
1625;SDS011;806;48.770;9.156;2023-03-01T14:24:03;12.35;;;7.97;;
1625;SDS011;806;48.770;9.156;2023-03-01T14:26:31;12.73;;;8.00;;
1625;SDS011;806;48.770;9.156;2023-03-01T14:29:02;12.25;;;7.93;;
1625;SDS011;806;48.770;9.156;2023-03-01T14:31:32;11.05;;;8.10;;
1625;SDS011;806;48.770;9.156;2023-03-01T14:34:02;11.48;;;7.82;;
1625;SDS011;806;48.770;9.156;2023-03-01T14:36:31;11.67;;;7.63;;
1625;SDS011;806;48.770;9.156;2023-03-01T14:39:01;12.63;;;8.10;;
1625;SDS011;806;48.770;9.156;2023-03-01T14:41:41;12.50;;;7.80;;
1625;SDS011;806;48.770;9.156;2023-03-01T14:44:12;9.32;;;7.53;;
1625;SDS011;806;48.770;9.156;2023-03-01T14:46:43;10.50;;;7.80;;
1625;SDS011;806;48.770;9.156;2023-03-01T14:49:12;12.43;;;7.35;;
1625;SDS011;806;48.770;9.156;2023-03-01T14:51:42;12.63;;;8.18;;
1625;SDS011;806;48.770;9.156;2023-03-01T14:54:20;11.50;;;8.30;;
1625;SDS011;806;48.770;9.156;2023-03-01T14:56:50;13.10;;;8.13;;
1625;SDS011;806;48.770;9.156;2023-03-01T14:59:18;14.15;;;8.15;;
1625;SDS011;806;48.770;9.156;2023-03-01T15:01:47;12.32;;;9.35;;
1625;SDS011;806;48.770;9.156;2023-03-01T15:04:16;12.10;;;8.70;;
1625;SDS011;806;48.770;9.156;2023-03-01T15:06:44;12.15;;;7.38;;
1625;SDS011;806;48.770;9.156;2023-03-01T15:09:13;12.90;;;8.45;;
1625;SDS011;806;48.770;9.156;2023-03-01T15:11:43;10.90;;;7.73;;
1625;SDS011;806;48.770;9.156;2023-03-01T15:14:26;13.40;;;8.43;;
1625;SDS011;806;48.770;9.156;2023-03-01T15:17:20;12.25;;;8.07;;
1625;SDS011;806;48.770;9.156;2023-03-01T15:19:53;12.13;;;8.10;;
1625;SDS011;806;48.770;9.156;2023-03-01T15:22:20;11.30;;;7.68;;
1625;SDS011;806;48.770;9.156;2023-03-01T15:24:49;11.55;;;7.60;;
1625;SDS011;806;48.770;9.156;2023-03-01T15:27:19;13.50;;;8.10;;
1625;SDS011;806;48.770;9.156;2023-03-01T15:29:48;14.02;;;8.20;;
1625;SDS011;806;48.770;9.156;2023-03-01T15:32:25;12.50;;;8.30;;
1625;SDS011;806;48.770;9.156;2023-03-01T15:34:55;12.33;;;8.50;;
1625;SDS011;806;48.770;9.156;2023-03-01T15:37:37;13.35;;;7.70;;
1625;SDS011;806;48.770;9.156;2023-03-01T15:40:18;12.95;;;7.57;;
1625;SDS011;806;48.770;9.156;2023-03-01T15:42:48;12.65;;;7.50;;
1625;SDS011;806;48.770;9.156;2023-03-01T15:45:21;11.18;;;8.00;;
1625;SDS011;806;48.770;9.156;2023-03-01T15:47:51;12.05;;;7.80;;
1625;SDS011;806;48.770;9.156;2023-03-01T15:50:21;10.77;;;7.40;;
1625;SDS011;806;48.770;9.156;2023-03-01T15:52:49;11.40;;;8.23;;
1625;SDS011;806;48.770;9.156;2023-03-01T15:55:19;10.95;;;7.63;;
1625;SDS011;806;48.770;9.156;2023-03-01T15:57:48;10.67;;;7.23;;
1625;SDS011;806;48.770;9.156;2023-03-01T16:00:16;11.50;;;7.60;;
1625;SDS011;806;48.770;9.156;2023-03-01T16:02:44;11.63;;;7.22;;